createdAt,value
2019-01-13T00:01:56.834Z,50.30
2019-01-13T00:04:24.635Z,50.20
2019-01-13T00:06:55.336Z,50.20
2019-01-13T00:09:23.219Z,50.20
2019-01-13T00:11:55.595Z,50.30
2019-01-13T00:14:26.952Z,50.30
2019-01-13T00:16:54.791Z,50.30
2019-01-13T00:19:24.950Z,50.40
2019-01-13T00:21:55.726Z,50.40
2019-01-13T00:24:23.904Z,50.40
2019-01-13T00:26:51.696Z,50.40
2019-01-13T00:29:19.498Z,50.30
2019-01-13T00:31:47.285Z,50.20
2019-01-13T00:34:15.076Z,50.30
2019-01-13T00:36:42.930Z,50.40
2019-01-13T00:39:10.759Z,50.30
2019-01-13T00:41:38.549Z,50.30
2019-01-13T00:44:06.422Z,50.30
2019-01-13T00:46:34.227Z,50.30
2019-01-13T00:49:02.093Z,50.30
2019-01-13T00:51:29.835Z,50.30
2019-01-13T00:54:00.421Z,50.30
2019-01-13T00:56:28.234Z,50.40
2019-01-13T00:58:56.444Z,50.40
2019-01-13T01:01:28.376Z,50.60
2019-01-13T01:03:56.200Z,50.50
2019-01-13T01:06:25.648Z,50.50
2019-01-13T01:08:53.470Z,50.70
2019-01-13T01:11:21.323Z,50.80
2019-01-13T01:13:49.496Z,50.70
2019-01-13T01:16:20.073Z,50.70
2019-01-13T01:18:47.864Z,50.90
2019-01-13T01:21:15.711Z,50.90
2019-01-13T01:23:43.492Z,50.90
2019-01-13T01:26:11.265Z,50.90
2019-01-13T01:28:39.093Z,50.90
2019-01-13T01:31:07.617Z,50.90
2019-01-13T01:33:35.446Z,51.00
2019-01-13T01:36:03.230Z,50.90
2019-01-13T01:38:31.386Z,51.00
2019-01-13T01:40:59.157Z,50.90
2019-01-13T01:43:29.952Z,51.00
2019-01-13T01:45:57.785Z,51.00
2019-01-13T01:48:25.860Z,50.90
2019-01-13T01:50:53.646Z,51.00
2019-01-13T01:53:21.419Z,51.00
2019-01-13T01:55:49.209Z,51.00
2019-01-13T01:58:16.987Z,50.90
2019-01-13T02:00:44.771Z,50.80
2019-01-13T02:03:12.547Z,51.50
2019-01-13T02:05:40.331Z,50.90
2019-01-13T02:08:08.151Z,50.90
2019-01-13T02:10:35.910Z,50.80
2019-01-13T02:13:04.041Z,50.80
2019-01-13T02:15:31.826Z,50.80
2019-01-13T02:17:59.783Z,50.80
2019-01-13T02:20:27.564Z,50.90
2019-01-13T02:22:55.352Z,50.70
2019-01-13T02:25:25.020Z,50.80
2019-01-13T02:27:55.974Z,50.70
2019-01-13T02:30:24.526Z,50.80
2019-01-13T02:32:52.335Z,50.80
2019-01-13T02:35:20.114Z,50.90
2019-01-13T02:37:48.194Z,50.80
2019-01-13T02:40:16.849Z,50.80
2019-01-13T02:42:44.677Z,50.80
2019-01-13T02:45:16.192Z,50.80
2019-01-13T02:47:43.976Z,50.80
2019-01-13T02:50:12.150Z,50.90
2019-01-13T02:52:39.929Z,50.90
2019-01-13T02:55:08.033Z,50.80
2019-01-13T02:57:35.822Z,50.80
2019-01-13T03:00:06.054Z,50.60
2019-01-13T03:02:33.839Z,50.80
2019-01-13T03:05:01.666Z,50.80
2019-01-13T03:07:29.454Z,50.80
2019-01-13T03:09:57.238Z,50.70
2019-01-13T03:12:25.339Z,51.00
2019-01-13T03:14:53.606Z,50.90
2019-01-13T03:17:21.403Z,50.80
2019-01-13T03:19:49.187Z,51.00
2019-01-13T03:22:17.287Z,51.10
2019-01-13T03:24:45.063Z,50.90
2019-01-13T03:27:12.849Z,51.10
2019-01-13T03:29:40.642Z,51.00
2019-01-13T03:32:08.458Z,50.90
2019-01-13T03:34:36.251Z,51.00
2019-01-13T03:37:04.040Z,50.90
2019-01-13T03:39:31.850Z,51.00
2019-01-13T03:41:59.936Z,51.00
2019-01-13T03:44:27.763Z,51.20
2019-01-13T03:46:55.557Z,50.90
2019-01-13T03:49:25.371Z,51.20
2019-01-13T03:51:54.778Z,51.10
2019-01-13T03:54:23.530Z,51.00
2019-01-13T03:56:51.325Z,51.10
2019-01-13T03:59:19.105Z,51.20
2019-01-13T04:01:46.884Z,51.30
2019-01-13T04:04:14.661Z,51.20
2019-01-13T04:06:42.497Z,51.40
2019-01-13T04:09:10.277Z,51.30
2019-01-13T04:11:38.106Z,51.30
2019-01-13T04:14:05.876Z,51.20
2019-01-13T04:16:33.705Z,51.10
2019-01-13T04:19:01.495Z,51.10
2019-01-13T04:21:29.322Z,51.30
2019-01-13T04:23:57.091Z,51.40
2019-01-13T04:26:25.216Z,51.50
2019-01-13T04:28:53.705Z,51.50
2019-01-13T04:31:26.614Z,51.40
2019-01-13T04:33:51.121Z,51.50
2019-01-13T04:36:18.912Z,51.60
2019-01-13T04:38:46.750Z,51.40
2019-01-13T04:41:14.526Z,51.60
2019-01-13T04:43:42.314Z,51.60
2019-01-13T04:46:10.092Z,51.60
2019-01-13T04:48:37.876Z,51.60
2019-01-13T04:51:05.650Z,51.50
2019-01-13T04:53:33.471Z,51.40
2019-01-13T04:56:01.268Z,51.40
2019-01-13T04:58:29.054Z,51.30
2019-01-13T05:00:56.854Z,51.30
2019-01-13T05:03:24.689Z,51.20
2019-01-13T05:05:53.471Z,51.00
2019-01-13T05:08:21.468Z,51.10
2019-01-13T05:10:49.246Z,50.90
2019-01-13T05:13:17.036Z,50.70
2019-01-13T05:15:44.820Z,50.60
2019-01-13T05:18:12.616Z,50.50
2019-01-13T05:20:40.456Z,50.50
2019-01-13T05:23:08.280Z,50.30
2019-01-13T05:25:36.102Z,50.20
2019-01-13T05:28:03.928Z,50.10
2019-01-13T05:30:34.491Z,50.10
2019-01-13T05:33:02.320Z,50.00
2019-01-13T05:35:30.085Z,50.00
2019-01-13T05:37:57.893Z,49.90
2019-01-13T05:40:25.701Z,49.90
2019-01-13T05:42:53.527Z,50.00
2019-01-13T05:45:21.303Z,49.90
2019-01-13T05:47:49.122Z,49.90
2019-01-13T05:50:16.994Z,49.80
2019-01-13T05:52:45.674Z,49.80
2019-01-13T05:55:13.768Z,49.80
2019-01-13T05:57:41.549Z,49.90
2019-01-13T06:00:19.881Z,49.80
2019-01-13T06:02:48.016Z,49.80
2019-01-13T06:05:16.137Z,49.80
2019-01-13T06:07:43.922Z,49.80
2019-01-13T06:10:13.214Z,49.80
2019-01-13T06:12:41.332Z,49.80
2019-01-13T06:15:10.779Z,49.80
2019-01-13T06:17:38.573Z,49.90
2019-01-13T06:20:07.979Z,49.80
2019-01-13T06:22:35.788Z,49.80
2019-01-13T06:25:04.347Z,49.80
2019-01-13T06:27:32.174Z,49.80
2019-01-13T06:29:59.962Z,50.00
2019-01-13T06:32:28.131Z,49.90
2019-01-13T06:34:55.928Z,49.90
2019-01-13T06:37:26.393Z,49.90
2019-01-13T06:39:57.370Z,50.00
2019-01-13T06:42:25.205Z,49.90
2019-01-13T06:44:53.019Z,50.00
2019-01-13T06:47:20.794Z,50.00
2019-01-13T06:49:48.631Z,49.90
2019-01-13T06:52:16.487Z,49.90
2019-01-13T06:54:44.650Z,49.90
2019-01-13T06:57:12.434Z,50.00
2019-01-13T06:59:40.280Z,50.00
2019-01-13T07:02:08.228Z,50.00
2019-01-13T07:04:39.757Z,50.10
2019-01-13T07:07:07.586Z,50.00
2019-01-13T07:09:35.788Z,49.90
2019-01-13T07:12:03.640Z,50.00
2019-01-13T07:14:31.422Z,50.00
2019-01-13T07:16:59.586Z,50.00
2019-01-13T07:19:35.601Z,50.00
2019-01-13T07:22:06.602Z,49.80
2019-01-13T07:24:35.220Z,49.90
2019-01-13T07:27:03.115Z,49.90
2019-01-13T07:29:30.998Z,50.00
2019-01-13T07:32:01.357Z,50.00
2019-01-13T07:34:29.164Z,50.00
2019-01-13T07:37:00.148Z,50.00
2019-01-13T07:39:27.932Z,49.90
2019-01-13T07:41:55.712Z,50.00
2019-01-13T07:44:27.086Z,50.00
2019-01-13T07:46:57.483Z,49.90
2019-01-13T07:49:26.316Z,50.00
2019-01-13T07:51:56.119Z,50.00
2019-01-13T07:54:25.856Z,49.90
2019-01-13T07:56:56.622Z,49.90
2019-01-13T07:59:24.364Z,49.80
2019-01-13T08:01:54.158Z,49.80
2019-01-13T08:04:21.936Z,49.80
2019-01-13T08:06:50.267Z,49.80
2019-01-13T08:09:18.154Z,49.70
2019-01-13T08:11:45.976Z,49.80
2019-01-13T08:14:13.758Z,49.80
2019-01-13T08:16:41.539Z,49.90
2019-01-13T08:19:09.637Z,49.80
2019-01-13T08:21:37.431Z,49.80
2019-01-13T08:24:05.216Z,49.90
2019-01-13T08:26:33.002Z,49.90
2019-01-13T08:29:00.791Z,49.70
2019-01-13T08:31:28.580Z,49.80
2019-01-13T08:33:56.592Z,49.80
2019-01-13T08:36:24.385Z,49.80
2019-01-13T08:38:54.063Z,49.70
2019-01-13T08:41:21.608Z,49.60
2019-01-13T08:43:49.390Z,49.60
2019-01-13T08:46:17.182Z,49.50
2019-01-13T08:48:45.004Z,49.60
2019-01-13T08:51:13.091Z,49.60
2019-01-13T08:53:40.863Z,49.70
2019-01-13T08:56:08.657Z,49.70
2019-01-13T08:58:36.464Z,49.70
2019-01-13T09:01:04.247Z,49.70
2019-01-13T09:03:32.018Z,49.70
2019-01-13T09:05:59.807Z,49.70
2019-01-13T09:08:27.626Z,49.70
2019-01-13T09:10:55.422Z,49.70
2019-01-13T09:13:24.952Z,49.80
2019-01-13T09:15:53.754Z,49.70
2019-01-13T09:18:21.575Z,49.80
2019-01-13T09:20:49.369Z,49.70
2019-01-13T09:23:17.174Z,49.70
2019-01-13T09:25:45.281Z,49.60
2019-01-13T09:28:13.070Z,49.60
2019-01-13T09:30:40.847Z,49.70
2019-01-13T09:33:08.699Z,49.70
2019-01-13T09:35:36.600Z,49.60
2019-01-13T09:38:04.373Z,49.70
2019-01-13T09:40:32.547Z,49.70
2019-01-13T09:43:00.334Z,49.70
2019-01-13T09:45:28.186Z,49.80
2019-01-13T09:47:56.188Z,49.80
2019-01-13T09:50:25.648Z,49.80
2019-01-13T09:52:55.103Z,49.80
2019-01-13T09:55:25.192Z,49.80
2019-01-13T09:57:55.913Z,49.90
2019-01-13T10:00:30.695Z,49.80
2019-01-13T10:02:58.478Z,49.80
2019-01-13T10:05:26.277Z,49.90
2019-01-13T10:07:55.747Z,49.90
2019-01-13T10:10:23.525Z,49.90
2019-01-13T10:12:51.339Z,49.90
2019-01-13T10:15:26.027Z,50.00
2019-01-13T10:17:56.285Z,50.00
2019-01-13T10:20:26.055Z,49.90
2019-01-13T10:22:56.754Z,50.00
2019-01-13T10:25:24.551Z,50.20
2019-01-13T10:27:53.484Z,50.20
2019-01-13T10:30:28.930Z,50.20
2019-01-13T10:32:56.692Z,50.30
2019-01-13T10:35:24.498Z,50.20
2019-01-13T10:37:52.340Z,50.00
2019-01-13T10:40:21.116Z,50.10
2019-01-13T10:42:48.896Z,50.00
2019-01-13T10:45:16.995Z,50.00
2019-01-13T10:47:44.774Z,49.90
2019-01-13T10:50:14.076Z,49.90
2019-01-13T10:52:41.890Z,50.00
2019-01-13T10:55:09.736Z,50.10
2019-01-13T10:57:37.513Z,49.90
2019-01-13T11:00:10.667Z,50.00
2019-01-13T11:02:38.445Z,50.00
2019-01-13T11:05:07.215Z,49.90
2019-01-13T11:07:35.036Z,49.90
2019-01-13T11:10:03.405Z,50.00
2019-01-13T11:12:31.191Z,50.10
2019-01-13T11:14:58.972Z,49.90
2019-01-13T11:17:26.749Z,50.10
2019-01-13T11:19:54.534Z,50.00
2019-01-13T11:22:22.380Z,50.10
2019-01-13T11:24:50.102Z,50.00
2019-01-13T11:27:17.890Z,50.00
2019-01-13T11:29:45.686Z,50.00
2019-01-13T11:32:13.485Z,50.10
2019-01-13T11:34:41.254Z,50.10
2019-01-13T11:37:09.472Z,50.10
2019-01-13T11:39:37.265Z,50.00
2019-01-13T11:42:05.068Z,50.00
2019-01-13T11:44:32.851Z,50.10
2019-01-13T11:47:00.651Z,50.10
2019-01-13T11:49:28.451Z,50.00
2019-01-13T11:51:56.283Z,50.10
2019-01-13T11:54:26.123Z,50.10
2019-01-13T11:56:55.605Z,50.00
2019-01-13T11:59:25.066Z,49.90
2019-01-13T12:01:55.527Z,50.00
2019-01-13T12:04:25.331Z,50.00
2019-01-13T12:06:53.119Z,49.90
2019-01-13T12:09:20.892Z,50.30
2019-01-13T12:11:48.682Z,50.10
2019-01-13T12:14:16.459Z,50.10
2019-01-13T12:16:44.521Z,49.90
2019-01-13T12:19:12.450Z,50.00
2019-01-13T12:21:40.222Z,50.10
2019-01-13T12:24:08.042Z,50.10
2019-01-13T12:26:36.193Z,50.00
2019-01-13T12:29:04.145Z,50.00
2019-01-13T12:31:32.384Z,50.10
2019-01-13T12:34:00.205Z,50.10
2019-01-13T12:36:28.034Z,50.40
2019-01-13T12:38:55.803Z,50.30
2019-01-13T12:41:27.109Z,50.30
2019-01-13T12:43:55.085Z,50.20
2019-01-13T12:46:23.815Z,50.30
2019-01-13T12:48:51.595Z,50.20
2019-01-13T12:51:19.408Z,50.30
2019-01-13T12:53:47.630Z,50.30
2019-01-13T12:56:15.709Z,50.30
2019-01-13T12:58:43.568Z,50.30
2019-01-13T13:01:11.518Z,50.30
2019-01-13T13:03:39.332Z,50.40
2019-01-13T13:06:07.227Z,50.30
2019-01-13T13:08:35.137Z,50.40
2019-01-13T13:11:03.362Z,50.40
2019-01-13T13:13:31.474Z,50.30
2019-01-13T13:15:59.564Z,50.30
2019-01-13T13:18:28.445Z,50.40
2019-01-13T13:20:56.198Z,50.30
2019-01-13T13:23:25.787Z,50.30
2019-01-13T13:25:53.647Z,50.90
2019-01-13T13:28:21.428Z,50.20
2019-01-13T13:30:49.584Z,50.30
2019-01-13T13:33:17.549Z,50.20
2019-01-13T13:38:43.038Z,50.30
2019-01-13T13:41:10.809Z,50.30
2019-01-13T13:43:38.210Z,50.30
2019-01-13T13:46:06.519Z,50.30
2019-01-13T13:48:34.315Z,50.20
2019-01-13T13:54:11.258Z,50.30
2019-01-13T13:56:39.059Z,50.50
2019-01-13T13:59:06.836Z,50.40
2019-01-13T14:01:34.657Z,50.30
2019-01-13T14:04:02.448Z,50.30
2019-01-13T14:06:30.288Z,50.30
2019-01-13T14:08:58.082Z,50.30
2019-01-13T14:11:25.861Z,50.50
2019-01-13T14:13:56.727Z,50.50
2019-01-13T14:16:24.500Z,50.40
2019-01-13T14:18:54.158Z,50.40
2019-01-13T14:21:21.699Z,50.30
2019-01-13T14:23:49.473Z,50.30
2019-01-13T14:26:17.275Z,50.40
2019-01-13T14:28:45.363Z,50.40
2019-01-13T14:31:13.226Z,50.40
2019-01-13T14:33:41.003Z,50.50
2019-01-13T14:36:09.156Z,50.50
2019-01-13T14:38:36.930Z,50.60
2019-01-13T14:41:04.748Z,50.60
2019-01-13T14:43:32.583Z,50.60
2019-01-13T14:46:00.712Z,50.70
2019-01-13T14:48:28.504Z,50.60
2019-01-13T14:50:56.284Z,50.50
2019-01-13T14:53:25.836Z,50.60
2019-01-13T14:55:56.586Z,50.70
2019-01-13T14:58:24.408Z,50.70
2019-01-13T15:00:54.165Z,50.60
2019-01-13T15:03:22.014Z,50.70
2019-01-13T15:05:49.807Z,50.80
2019-01-13T15:08:17.590Z,50.70
2019-01-13T15:10:45.370Z,50.90
2019-01-13T15:13:13.153Z,50.80
2019-01-13T15:15:41.256Z,50.80
2019-01-13T15:18:09.044Z,50.80
2019-01-13T15:20:38.186Z,50.90
2019-01-13T15:23:05.960Z,50.80
2019-01-13T15:25:33.813Z,50.90
2019-01-13T15:28:01.614Z,50.90
2019-01-13T15:30:30.371Z,51.00
2019-01-13T15:32:58.183Z,51.00
2019-01-13T15:35:27.052Z,50.90
2019-01-13T15:37:57.339Z,51.10
2019-01-13T15:40:25.198Z,51.30
2019-01-13T15:42:56.234Z,51.20
2019-01-13T15:45:25.730Z,51.20
2019-01-13T15:47:53.584Z,51.10
2019-01-13T15:50:23.026Z,51.20
2019-01-13T15:52:51.384Z,51.20
2019-01-13T15:55:19.229Z,51.20
2019-01-13T15:57:47.944Z,51.10
2019-01-13T16:00:19.665Z,51.20
2019-01-13T16:02:47.962Z,51.20
2019-01-13T16:05:15.808Z,51.20
2019-01-13T16:07:43.666Z,51.40
2019-01-13T16:10:12.822Z,51.40
2019-01-13T16:12:41.022Z,51.90
2019-01-13T16:15:10.466Z,51.40
2019-01-13T16:17:38.311Z,51.30
2019-01-13T16:20:07.756Z,51.30
2019-01-13T16:22:35.672Z,51.40
2019-01-13T16:25:03.870Z,51.20
2019-01-13T16:27:31.707Z,51.30
2019-01-13T16:29:59.491Z,51.30
2019-01-13T16:32:27.761Z,51.30
2019-01-13T16:34:55.814Z,51.40
2019-01-13T16:37:26.558Z,51.40
2019-01-13T16:39:58.018Z,51.40
2019-01-13T16:42:26.112Z,51.50
2019-01-13T16:44:53.966Z,51.50
2019-01-13T16:47:21.736Z,51.50
2019-01-13T16:49:50.536Z,51.70
2019-01-13T16:52:18.308Z,51.50
2019-01-13T16:54:46.314Z,51.50
2019-01-13T16:57:14.095Z,51.60
2019-01-13T16:59:41.929Z,51.60
2019-01-13T17:02:09.736Z,51.60
2019-01-13T17:04:37.522Z,51.70
2019-01-13T17:07:05.313Z,51.70
2019-01-13T17:09:33.118Z,51.70
2019-01-13T17:12:01.156Z,51.90
2019-01-13T17:14:28.945Z,51.90
2019-01-13T17:16:56.722Z,51.90
2019-01-13T17:19:25.164Z,51.60
2019-01-13T17:21:55.744Z,51.70
2019-01-13T17:24:23.575Z,51.70
2019-01-13T17:26:51.576Z,51.80
2019-01-13T17:29:19.364Z,51.90
2019-01-13T17:31:47.196Z,51.90
2019-01-13T17:34:15.031Z,52.00
2019-01-13T17:36:42.804Z,52.00
2019-01-13T17:39:10.584Z,51.90
2019-01-13T17:41:38.368Z,51.80
2019-01-13T17:44:06.169Z,51.70
2019-01-13T17:46:33.954Z,51.70
2019-01-13T17:49:02.601Z,51.60
2019-01-13T17:51:30.473Z,51.60
2019-01-13T17:53:58.560Z,51.70
2019-01-13T17:56:26.502Z,51.50
2019-01-13T17:58:57.307Z,51.40
2019-01-13T18:01:25.653Z,51.50
2019-01-13T18:03:53.594Z,51.60
2019-01-13T18:06:21.698Z,51.50
2019-01-13T18:08:49.475Z,51.50
2019-01-13T18:11:17.274Z,51.40
2019-01-13T18:13:45.349Z,51.60
2019-01-13T18:16:13.123Z,51.70
2019-01-13T18:18:40.945Z,51.70
2019-01-13T18:21:09.471Z,51.60
2019-01-13T18:23:37.265Z,51.70
2019-01-13T18:26:05.048Z,51.60
2019-01-13T18:28:32.867Z,51.60
2019-01-13T18:31:01.136Z,52.00
2019-01-13T18:33:28.932Z,52.80
2019-01-13T18:35:56.717Z,54.30
2019-01-13T18:38:24.765Z,53.50
2019-01-13T18:40:52.619Z,55.00
2019-01-13T18:43:20.740Z,54.00
2019-01-13T18:45:48.604Z,53.10
2019-01-13T18:48:16.401Z,53.20
2019-01-13T18:50:44.216Z,53.10
2019-01-13T18:53:13.083Z,52.80
2019-01-13T18:55:40.869Z,52.90
2019-01-13T18:58:08.719Z,52.80
2019-01-13T19:00:36.853Z,52.50
2019-01-13T19:03:04.694Z,52.60
2019-01-13T19:05:32.470Z,52.40
2019-01-13T19:08:00.286Z,52.50
2019-01-13T19:10:35.846Z,52.70
2019-01-13T19:13:05.311Z,52.60
2019-01-13T19:15:33.118Z,52.90
2019-01-13T19:18:00.928Z,52.50
2019-01-13T19:20:29.088Z,52.90
2019-01-13T19:22:56.899Z,52.60
2019-01-13T19:25:24.754Z,52.50
2019-01-13T19:27:54.825Z,52.50
2019-01-13T19:30:25.939Z,52.40
2019-01-13T19:32:56.505Z,52.30
2019-01-13T19:35:27.219Z,52.30
2019-01-13T19:40:37.047Z,52.40
2019-01-13T19:43:04.846Z,52.30
2019-01-13T19:45:32.677Z,52.30
2019-01-13T19:48:00.648Z,52.30
2019-01-13T19:50:52.668Z,52.30
2019-01-13T19:53:20.918Z,52.20
2019-01-13T19:55:48.824Z,52.20
2019-01-13T19:58:21.382Z,52.60
2019-01-13T20:00:49.184Z,52.10
2019-01-13T20:03:17.426Z,52.70
2019-01-13T20:05:45.212Z,53.60
2019-01-13T20:08:13.313Z,52.90
2019-01-13T20:10:41.480Z,52.60
2019-01-13T20:13:09.257Z,52.70
2019-01-13T20:15:37.049Z,52.80
2019-01-13T20:18:04.881Z,52.70
2019-01-13T20:20:32.656Z,52.80
2019-01-13T20:23:00.809Z,52.90
2019-01-13T20:25:29.566Z,53.00
2019-01-13T20:27:57.351Z,52.70
2019-01-13T20:30:26.806Z,53.00
2019-01-13T20:32:54.597Z,52.70
2019-01-13T20:35:23.340Z,52.60
2019-01-13T20:37:51.133Z,52.60
2019-01-13T20:40:19.237Z,52.90
2019-01-13T20:42:47.029Z,52.70
2019-01-13T20:45:25.020Z,52.90
2019-01-13T20:47:53.282Z,52.60
2019-01-13T20:50:21.066Z,52.80
2019-01-13T20:52:49.557Z,52.70
2019-01-13T20:55:18.371Z,52.70
2019-01-13T20:57:46.356Z,52.70
2019-01-13T21:00:21.959Z,52.70
2019-01-13T21:05:27.604Z,52.60
2019-01-13T21:07:56.007Z,52.60
2019-01-13T21:10:23.849Z,52.60
2019-01-13T21:12:51.631Z,52.50
2019-01-13T21:15:26.744Z,52.40
2019-01-13T21:17:57.572Z,52.50
2019-01-13T21:20:25.645Z,52.50
2019-01-13T21:22:55.490Z,52.40
2019-01-13T21:25:25.274Z,52.40
2019-01-13T21:27:54.222Z,52.30
2019-01-13T21:30:26.297Z,52.20
2019-01-13T21:32:55.725Z,52.30
2019-01-13T21:35:23.600Z,52.10
2019-01-13T21:37:51.384Z,52.30
2019-01-13T21:40:19.193Z,52.30
2019-01-13T21:42:46.960Z,52.30
2019-01-13T21:45:18.712Z,52.20
2019-01-13T21:47:46.548Z,52.30
2019-01-13T21:50:15.406Z,52.30
2019-01-13T21:52:43.229Z,52.30
2019-01-13T21:55:11.875Z,52.30
2019-01-13T21:57:40.002Z,52.90
2019-01-13T22:00:09.923Z,52.30
2019-01-13T22:02:37.783Z,52.30
2019-01-13T22:05:07.276Z,52.20
2019-01-13T22:07:35.071Z,52.20
2019-01-13T22:10:02.825Z,52.10
2019-01-13T22:12:30.615Z,52.70
2019-01-13T22:14:58.433Z,51.90
2019-01-13T22:17:26.282Z,52.00
2019-01-13T22:19:55.698Z,52.10
2019-01-13T22:22:25.116Z,51.90
2019-01-13T22:24:53.375Z,51.90
2019-01-13T22:27:21.160Z,51.80
2019-01-13T22:29:48.986Z,51.80
2019-01-13T22:32:16.867Z,51.80
2019-01-13T22:34:44.663Z,51.80
2019-01-13T22:37:12.439Z,51.80
2019-01-13T22:39:40.217Z,51.80
2019-01-13T22:42:08.325Z,51.70
2019-01-13T22:44:36.104Z,51.80
2019-01-13T22:47:03.926Z,51.70
2019-01-13T22:49:31.710Z,51.60
2019-01-13T22:51:59.806Z,51.60
2019-01-13T22:54:27.596Z,51.60
2019-01-13T22:56:55.384Z,51.60
2019-01-13T22:59:24.809Z,51.60
2019-01-13T23:01:54.688Z,51.60
2019-01-13T23:04:24.905Z,51.60
2019-01-13T23:06:55.702Z,51.50
2019-01-13T23:09:23.603Z,51.60
2019-01-13T23:11:51.423Z,51.60
2019-01-13T23:14:19.362Z,51.50
2019-01-13T23:16:47.462Z,51.50
2019-01-13T23:19:15.242Z,51.40
2019-01-13T23:21:43.032Z,51.40
2019-01-13T23:24:10.806Z,51.30
2019-01-13T23:26:38.592Z,51.20
2019-01-13T23:29:06.385Z,51.20
2019-01-13T23:31:34.543Z,51.10
2019-01-13T23:34:02.325Z,51.00
2019-01-13T23:36:30.101Z,51.10
2019-01-13T23:38:57.891Z,51.00
2019-01-13T23:41:25.669Z,51.00
2019-01-13T23:43:53.769Z,50.80
2019-01-13T23:46:21.537Z,50.80
2019-01-13T23:48:49.330Z,50.80
2019-01-13T23:51:17.115Z,50.70
2019-01-13T23:53:44.897Z,50.70
2019-01-13T23:56:13.001Z,50.80
2019-01-13T23:58:41.089Z,50.70
